Time;durP1;ratioP1;P1;durP2;ratioP2;P2;SDS_P1;SDS_P2;PMS_P1;PMS_P2;Temp;Humidity;BMP_temperature;BMP_pressure;BME280_temperature;BME280_humidity;BME280_pressure;Samples;Min_cycle;Max_cycle;Signal;HPM_P1;HPM_P2
2022/01/31 00:01:52;;;;;;;14.27;4.93;;;30.20;99.90;;;;;;5072465;28;20208;-66
2022/01/31 00:04:19;;;;;;;13.97;4.63;;;30.30;99.90;;;;;;5072699;28;20668;-67
2022/01/31 00:06:50;;;;;;;9.70;3.97;;;30.40;99.90;;;;;;5073216;28;20175;-68
2022/01/31 00:09:18;;;;;;;9.87;4.30;;;31.00;99.90;;;;;;5073051;28;20307;-68
2022/01/31 00:11:55;;;;;;;7.53;4.37;;;30.60;99.90;;;;;;5073134;28;20212;-67
2022/01/31 00:14:33;;;;;;;8.10;4.47;;;30.10;99.90;;;;;;5072283;28;20180;-66
2022/01/31 00:17:01;;;;;;;7.53;4.40;;;29.30;99.90;;;;;;5053107;28;20242;-69
2022/01/31 00:19:28;;;;;;;9.67;4.17;;;29.10;99.90;;;;;;5053465;28;20187;-67
2022/01/31 00:21:56;;;;;;;10.10;4.40;;;29.30;99.90;;;;;;5052992;28;20541;-68
2022/01/31 00:24:24;;;;;;;7.27;4.63;;;29.90;99.90;;;;;;5071338;28;20203;-67
2022/01/31 00:26:52;;;;;;;6.40;4.13;;;30.90;99.90;;;;;;5071745;28;20188;-67
2022/01/31 00:29:19;;;;;;;6.20;4.00;;;31.30;99.90;;;;;;5072424;28;20183;-67
2022/01/31 00:31:47;;;;;;;13.35;5.40;;;31.50;99.90;;;;;;5072349;28;20219;-68
2022/01/31 00:34:14;;;;;;;12.40;4.90;;;31.20;99.90;;;;;;5072596;28;20263;-69
2022/01/31 00:36:41;;;;;;;12.45;5.05;;;31.60;99.90;;;;;;5072694;28;20195;-68
2022/01/31 00:39:09;;;;;;;7.20;4.72;;;31.50;99.90;;;;;;5075621;28;20271;-67
2022/01/31 00:41:38;;;;;;;7.88;4.25;;;30.90;99.90;;;;;;5077173;28;20203;-69
2022/01/31 00:46:47;;;;;;;8.98;5.10;;;31.00;99.90;;;;;;5076907;28;20187;-68
2022/01/31 00:49:27;;;;;;;9.87;4.93;;;31.10;99.90;;;;;;5076890;28;20665;-68
2022/01/31 00:51:55;;;;;;;9.77;5.30;;;31.10;99.90;;;;;;5076553;28;20676;-68
2022/01/31 00:54:23;;;;;;;11.88;5.40;;;30.80;99.90;;;;;;5076494;28;20186;-68
2022/01/31 00:56:51;;;;;;;11.50;5.65;;;30.70;99.90;;;;;;5076593;28;20206;-67
2022/01/31 00:59:19;;;;;;;10.57;4.82;;;30.50;99.90;;;;;;5076088;28;20731;-67
2022/01/31 01:01:47;;;;;;;9.87;5.10;;;30.00;99.90;;;;;;5076726;28;20205;-67
2022/01/31 01:04:14;;;;;;;11.90;5.72;;;30.00;99.90;;;;;;5076692;28;20183;-67
2022/01/31 01:06:42;;;;;;;9.35;4.80;;;30.40;99.90;;;;;;5075257;28;20182;-67
2022/01/31 01:09:11;;;;;;;9.37;5.63;;;31.10;99.90;;;;;;5074430;28;20227;-67
2022/01/31 01:11:38;;;;;;;9.40;5.82;;;31.80;99.90;;;;;;5075145;28;20219;-67
2022/01/31 01:14:06;;;;;;;10.57;5.25;;;32.40;99.90;;;;;;5075284;28;20544;-67
2022/01/31 01:16:33;;;;;;;6.47;4.78;;;32.90;99.90;;;;;;5076154;28;20184;-67
2022/01/31 01:19:01;;;;;;;6.05;4.38;;;33.40;99.90;;;;;;5075761;28;20179;-67
2022/01/31 01:21:28;;;;;;;7.00;5.45;;;33.60;99.90;;;;;;5075374;28;20175;-67
2022/01/31 01:23:55;;;;;;;8.88;4.95;;;33.50;99.90;;;;;;5075361;28;20184;-67
2022/01/31 01:26:23;;;;;;;9.77;5.13;;;33.30;99.90;;;;;;5075582;28;20660;-67
2022/01/31 01:28:50;;;;;;;7.05;4.97;;;34.00;99.90;;;;;;5075467;28;20689;-67
2022/01/31 01:31:17;;;;;;;7.47;4.93;;;34.10;99.90;;;;;;5075487;28;20269;-68
2022/01/31 01:33:45;;;;;;;9.85;5.10;;;33.10;99.90;;;;;;5074262;28;20173;-68
2022/01/31 01:36:13;;;;;;;10.23;5.35;;;32.90;99.90;;;;;;5097029;28;20245;-67
2022/01/31 01:38:40;;;;;;;10.35;4.95;;;32.40;99.90;;;;;;5075463;28;20176;-68
2022/01/31 01:41:08;;;;;;;9.77;4.65;;;32.80;99.90;;;;;;5073881;28;20207;-67
2022/01/31 01:43:35;;;;;;;8.98;4.10;;;32.20;99.90;;;;;;5075553;28;20533;-67
2022/01/31 01:46:02;;;;;;;9.63;5.00;;;32.40;99.90;;;;;;5075506;28;21017;-68
2022/01/31 01:48:30;;;;;;;12.50;5.40;;;32.50;99.90;;;;;;5075771;28;20195;-68
2022/01/31 01:50:58;;;;;;;6.75;4.68;;;32.00;99.90;;;;;;5074778;28;20242;-66
2022/01/31 01:53:26;;;;;;;6.90;5.00;;;31.60;99.90;;;;;;5075288;28;20184;-66
2022/01/31 01:55:54;;;;;;;10.82;4.88;;;31.20;99.90;;;;;;5074104;28;20179;-69
2022/01/31 01:58:23;;;;;;;12.45;6.50;;;31.90;99.90;;;;;;5075406;28;20203;-70
2022/01/31 02:01:02;;;;;;;8.30;5.45;;;32.20;99.90;;;;;;5075577;28;20180;-69
2022/01/31 02:03:33;;;;;;;9.20;5.18;;;33.00;99.90;;;;;;5075589;28;20187;-66
2022/01/31 02:06:01;;;;;;;9.55;5.28;;;32.00;99.90;;;;;;5075159;28;20177;-66
2022/01/31 02:08:29;;;;;;;8.60;4.88;;;31.60;99.90;;;;;;5075474;28;20356;-66
2022/01/31 02:10:56;;;;;;;7.57;4.95;;;31.40;99.90;;;;;;5075196;28;20208;-66
2022/01/31 02:13:26;;;;;;;9.63;5.38;;;31.20;99.90;;;;;;5075211;28;20168;-66
2022/01/31 02:15:53;;;;;;;8.55;4.80;;;31.00;99.90;;;;;;5075070;28;20195;-67
2022/01/31 02:18:24;;;;;;;7.40;4.85;;;32.20;99.90;;;;;;5075320;28;20709;-67
2022/01/31 02:20:52;;;;;;;9.15;5.45;;;32.60;99.90;;;;;;5075063;28;20180;-67
2022/01/31 02:23:21;;;;;;;5.28;4.47;;;33.00;99.90;;;;;;5075346;28;20530;-68
2022/01/31 02:26:01;;;;;;;7.55;5.18;;;33.60;99.90;;;;;;5074948;28;20199;-67
2022/01/31 02:28:31;;;;;;;6.20;5.13;;;34.30;99.90;;;;;;5075511;28;20179;-68
2022/01/31 02:30:59;;;;;;;8.88;5.07;;;34.70;99.90;;;;;;5074724;28;20216;-68
2022/01/31 02:33:27;;;;;;;7.25;4.55;;;34.60;99.90;;;;;;5075005;28;20267;-66
2022/01/31 02:36:00;;;;;;;6.95;4.65;;;34.30;99.90;;;;;;5075019;28;20309;-67
2022/01/31 02:38:28;;;;;;;6.32;4.47;;;34.50;99.90;;;;;;5054985;28;20173;-67
2022/01/31 02:40:55;;;;;;;7.88;4.78;;;34.90;99.90;;;;;;5054956;28;20208;-68
2022/01/31 02:43:29;;;;;;;8.25;5.05;;;35.20;99.90;;;;;;5054815;28;20650;-67
2022/01/31 02:45:57;;;;;;;7.40;5.20;;;34.80;99.90;;;;;;5061118;28;20259;-67
2022/01/31 02:48:27;;;;;;;13.82;5.35;;;34.50;99.90;;;;;;5074363;28;20184;-67
2022/01/31 02:50:55;;;;;;;8.35;5.43;;;33.90;99.90;;;;;;5074325;28;20268;-67
2022/01/31 02:53:25;;;;;;;10.05;5.45;;;33.30;99.90;;;;;;5074611;28;20180;-66
2022/01/31 02:55:55;;;;;;;6.32;4.68;;;32.80;99.90;;;;;;5074346;28;20203;-66
2022/01/31 02:58:23;;;;;;;10.73;5.45;;;33.00;99.90;;;;;;5073162;28;20223;-67
2022/01/31 03:00:52;;;;;;;9.10;5.50;;;33.10;99.90;;;;;;5072068;28;20667;-68
2022/01/31 03:03:20;;;;;;;5.93;4.72;;;32.00;99.90;;;;;;5072966;28;20605;-68
2022/01/31 03:05:48;;;;;;;6.80;4.90;;;31.70;99.90;;;;;;5074206;28;20187;-68
2022/01/31 03:08:15;;;;;;;8.40;4.97;;;32.80;99.90;;;;;;5074149;28;20212;-67
2022/01/31 03:10:42;;;;;;;6.40;4.13;;;33.80;99.90;;;;;;5074451;28;20234;-67
2022/01/31 03:13:10;;;;;;;6.70;4.00;;;34.10;99.90;;;;;;5072810;28;20539;-67
2022/01/31 03:15:37;;;;;;;8.00;4.00;;;33.80;99.90;;;;;;5073867;28;20180;-68
2022/01/31 03:18:06;;;;;;;7.30;3.50;;;34.20;99.90;;;;;;5074007;28;20202;-66
2022/01/31 03:20:34;;;;;;;8.48;2.90;;;34.30;99.90;;;;;;5073725;28;20306;-67
2022/01/31 03:23:01;;;;;;;8.13;2.60;;;34.50;99.90;;;;;;5073965;28;20226;-67
2022/01/31 03:25:29;;;;;;;7.32;3.05;;;34.60;99.90;;;;;;5073552;28;20241;-66
2022/01/31 03:27:56;;;;;;;4.50;2.83;;;34.80;99.90;;;;;;5072050;28;20211;-67
2022/01/31 03:30:24;;;;;;;5.90;3.47;;;34.70;99.90;;;;;;5073768;28;20211;-67
2022/01/31 03:32:52;;;;;;;11.55;3.72;;;34.30;99.90;;;;;;5073497;28;20176;-67
2022/01/31 03:35:20;;;;;;;4.72;3.10;;;34.30;99.90;;;;;;5073896;28;20596;-67
2022/01/31 03:37:47;;;;;;;8.07;4.03;;;34.70;99.90;;;;;;5072099;28;20293;-66
2022/01/31 03:40:15;;;;;;;7.50;3.40;;;35.00;99.90;;;;;;5074211;28;20168;-68
2022/01/31 03:42:42;;;;;;;7.50;3.42;;;35.00;99.90;;;;;;5073407;28;20659;-67
2022/01/31 03:45:12;;;;;;;9.30;4.05;;;34.20;99.90;;;;;;5073412;28;20627;-67
2022/01/31 03:47:44;;;;;;;7.60;3.22;;;33.80;99.90;;;;;;5072954;28;20210;-67
2022/01/31 03:50:17;;;;;;;6.50;3.42;;;33.40;99.90;;;;;;5073670;28;20586;-67
2022/01/31 03:52:45;;;;;;;5.88;3.08;;;33.80;99.90;;;;;;5073654;28;20240;-67
2022/01/31 03:55:14;;;;;;;9.77;2.95;;;33.60;99.90;;;;;;5073531;28;20188;-68
2022/01/31 03:57:41;;;;;;;9.45;3.53;;;33.60;99.90;;;;;;5072938;28;20537;-67
2022/01/31 04:00:11;;;;;;;7.00;3.17;;;33.70;99.90;;;;;;5073546;28;20175;-67
2022/01/31 04:02:39;;;;;;;6.75;3.60;;;32.80;99.90;;;;;;5073136;28;20207;-67
2022/01/31 04:05:07;;;;;;;6.60;2.67;;;32.80;99.90;;;;;;5072174;28;20187;-66
2022/01/31 04:07:35;;;;;;;5.82;2.92;;;32.50;99.90;;;;;;5072979;28;20180;-67
2022/01/31 04:10:03;;;;;;;6.22;2.70;;;33.30;99.90;;;;;;5072572;28;20226;-67
2022/01/31 04:12:31;;;;;;;7.53;2.97;;;34.30;99.90;;;;;;5072334;28;20254;-67
2022/01/31 04:14:58;;;;;;;7.00;2.80;;;34.30;99.90;;;;;;5073227;28;20206;-67
2022/01/31 04:17:25;;;;;;;7.40;2.80;;;34.10;99.90;;;;;;5072716;28;20582;-67
2022/01/31 04:19:53;;;;;;;6.75;2.83;;;33.20;99.90;;;;;;5073345;28;20168;-67
2022/01/31 04:22:23;;;;;;;8.02;2.85;;;33.50;99.90;;;;;;5072746;28;20180;-67
2022/01/31 04:24:55;;;;;;;6.35;2.88;;;33.90;99.90;;;;;;5072985;28;20233;-66
2022/01/31 04:27:27;;;;;;;7.47;3.70;;;34.40;99.90;;;;;;5072769;28;20548;-66
2022/01/31 04:29:55;;;;;;;6.30;2.97;;;33.90;99.90;;;;;;5071916;28;20241;-66
2022/01/31 04:32:22;;;;;;;8.10;2.53;;;34.30;99.90;;;;;;5073190;28;20522;-67
2022/01/31 04:34:50;;;;;;;5.47;2.78;;;34.30;99.90;;;;;;5073081;28;20213;-65
2022/01/31 04:37:18;;;;;;;6.72;2.40;;;33.70;99.90;;;;;;5071436;28;20528;-66
2022/01/31 04:39:46;;;;;;;3.83;2.00;;;33.30;99.90;;;;;;5073175;28;20179;-67
2022/01/31 04:42:13;;;;;;;5.18;2.28;;;32.60;99.90;;;;;;5072650;28;20175;-68
2022/01/31 04:44:41;;;;;;;7.85;2.90;;;31.90;99.90;;;;;;5072803;28;20653;-67
2022/01/31 04:47:09;;;;;;;5.95;2.80;;;31.70;99.90;;;;;;5072430;28;20172;-66
2022/01/31 04:49:36;;;;;;;4.47;2.60;;;32.00;99.90;;;;;;5072894;28;20201;-67
2022/01/31 04:52:05;;;;;;;10.02;2.75;;;32.10;99.90;;;;;;5073016;28;20268;-66
2022/01/31 04:54:32;;;;;;;5.75;2.38;;;32.30;99.90;;;;;;5071801;28;20175;-67
2022/01/31 04:57:00;;;;;;;7.60;2.53;;;31.90;99.90;;;;;;5072973;28;20272;-67
2022/01/31 04:59:28;;;;;;;6.85;2.80;;;31.70;99.90;;;;;;5072641;28;20176;-67
2022/01/31 05:01:56;;;;;;;6.13;2.67;;;32.40;99.90;;;;;;5072928;28;20234;-67
2022/01/31 05:04:26;;;;;;;3.67;2.40;;;32.40;99.90;;;;;;5072508;28;20541;-67
2022/01/31 05:06:53;;;;;;;4.53;2.22;;;32.60;99.90;;;;;;5072812;28;20249;-67
2022/01/31 05:09:21;;;;;;;6.78;2.53;;;33.30;99.90;;;;;;5072517;28;20216;-66
2022/01/31 05:11:48;;;;;;;8.10;2.97;;;33.10;99.90;;;;;;5072620;28;20237;-68
2022/01/31 05:14:17;;;;;;;4.57;2.40;;;32.70;99.90;;;;;;5072383;28;20222;-67
2022/01/31 05:16:46;;;;;;;5.30;2.60;;;33.20;99.90;;;;;;5072513;28;20184;-67
2022/01/31 05:19:14;;;;;;;7.28;2.95;;;33.20;99.90;;;;;;5072793;28;20180;-67
2022/01/31 05:21:41;;;;;;;3.78;2.65;;;33.80;99.90;;;;;;5072734;28;20231;-67
2022/01/31 05:24:10;;;;;;;5.68;2.47;;;33.50;99.90;;;;;;5073536;28;20211;-67
2022/01/31 05:26:38;;;;;;;3.83;2.55;;;32.80;99.90;;;;;;5075773;28;20691;-67
2022/01/31 05:29:06;;;;;;;5.47;3.13;;;32.60;99.90;;;;;;5076248;28;20225;-67
2022/01/31 05:31:33;;;;;;;5.35;2.42;;;32.50;99.90;;;;;;5076532;28;20272;-68
2022/01/31 05:34:01;;;;;;;6.88;3.00;;;32.70;99.90;;;;;;5075744;28;20578;-67
2022/01/31 05:36:29;;;;;;;6.90;2.65;;;32.90;99.90;;;;;;5075730;28;20191;-67
2022/01/31 05:38:57;;;;;;;5.05;2.65;;;32.80;99.90;;;;;;5076127;28;20670;-67
2022/01/31 05:41:24;;;;;;;5.68;3.67;;;32.90;99.90;;;;;;5075950;28;20625;-67
2022/01/31 05:43:52;;;;;;;3.80;2.63;;;32.60;99.90;;;;;;5075612;28;20515;-67
2022/01/31 05:46:20;;;;;;;5.97;2.73;;;32.70;99.90;;;;;;5075812;28;20298;-68
2022/01/31 05:48:48;;;;;;;6.57;3.13;;;32.00;99.90;;;;;;5075582;28;20207;-67
2022/01/31 05:51:21;;;;;;;6.07;2.97;;;31.10;99.90;;;;;;5075019;28;20212;-67
2022/01/31 05:53:51;;;;;;;5.30;2.90;;;30.70;99.90;;;;;;5075333;28;20172;-68
2022/01/31 05:56:19;;;;;;;4.77;2.77;;;30.80;99.90;;;;;;5072445;28;20192;-66
2022/01/31 05:58:49;;;;;;;5.80;3.10;;;30.70;99.90;;;;;;5072760;28;20182;-67
2022/01/31 06:01:17;;;;;;;5.23;3.43;;;30.60;99.90;;;;;;5073757;28;20176;-67
2022/01/31 06:03:45;;;;;;;5.43;2.90;;;30.70;99.90;;;;;;5073708;28;20542;-67
2022/01/31 06:06:13;;;;;;;4.50;2.37;;;31.40;99.90;;;;;;5074728;28;20226;-67
2022/01/31 06:08:41;;;;;;;5.70;2.60;;;31.60;99.90;;;;;;5074646;28;20215;-67
2022/01/31 06:11:09;;;;;;;5.20;2.95;;;32.30;99.90;;;;;;5075753;28;20272;-67
2022/01/31 06:13:37;;;;;;;5.82;2.83;;;32.50;99.90;;;;;;5075646;28;20175;-68
2022/01/31 06:16:05;;;;;;;4.70;2.60;;;32.90;99.90;;;;;;5073637;28;20184;-68
2022/01/31 06:18:35;;;;;;;3.57;2.57;;;32.60;99.90;;;;;;5074954;28;20184;-67
2022/01/31 06:21:04;;;;;;;3.92;2.45;;;32.20;99.90;;;;;;5074818;28;20225;-67
2022/01/31 06:23:32;;;;;;;7.35;2.55;;;31.70;99.90;;;;;;5070605;28;20187;-68
2022/01/31 06:26:00;;;;;;;7.35;2.97;;;32.20;99.90;;;;;;5074558;28;20187;-67
2022/01/31 06:28:27;;;;;;;3.77;2.30;;;31.90;99.90;;;;;;5074619;28;20186;-68
2022/01/31 06:30:55;;;;;;;5.32;2.65;;;31.90;99.90;;;;;;5074282;28;20202;-66
2022/01/31 06:33:23;;;;;;;6.77;3.00;;;31.50;99.90;;;;;;5074614;28;20168;-67
2022/01/31 06:35:51;;;;;;;5.13;3.13;;;31.30;99.90;;;;;;5073720;28;20184;-68
2022/01/31 06:38:18;;;;;;;4.43;2.65;;;31.60;99.90;;;;;;5074470;28;20312;-67
2022/01/31 06:40:46;;;;;;;7.30;2.65;;;31.60;99.90;;;;;;5074496;28;20609;-66
2022/01/31 06:43:14;;;;;;;4.97;2.65;;;31.70;99.90;;;;;;5073805;28;20169;-67
2022/01/31 06:45:42;;;;;;;4.80;1.92;;;31.80;99.90;;;;;;5071622;28;20529;-67
2022/01/31 06:48:09;;;;;;;3.67;2.03;;;31.70;99.90;;;;;;5074206;28;20168;-68
2022/01/31 06:50:37;;;;;;;2.92;1.75;;;31.70;99.90;;;;;;5074754;28;20688;-68
2022/01/31 06:53:06;;;;;;;4.97;2.35;;;31.90;99.90;;;;;;5073565;28;20180;-67
2022/01/31 06:55:34;;;;;;;5.93;2.40;;;31.90;99.90;;;;;;5074159;28;20168;-68
2022/01/31 06:58:03;;;;;;;4.30;2.60;;;31.30;99.90;;;;;;5074166;28;20609;-67
2022/01/31 07:00:31;;;;;;;5.43;2.17;;;31.10;99.90;;;;;;5074488;28;20626;-67
2022/01/31 07:03:00;;;;;;;4.80;2.38;;;31.10;99.90;;;;;;5074244;28;20172;-66
2022/01/31 07:05:28;;;;;;;3.77;2.23;;;31.30;99.90;;;;;;5060846;28;20211;-68
2022/01/31 07:07:55;;;;;;;6.83;2.50;;;30.80;99.90;;;;;;5074876;28;20186;-67
2022/01/31 07:10:27;;;;;;;3.83;2.17;;;31.00;99.90;;;;;;5072762;28;20650;-68
2022/01/31 07:12:56;;;;;;;4.73;2.20;;;31.10;99.90;;;;;;5070824;28;20180;-68
2022/01/31 07:15:23;;;;;;;3.33;2.10;;;30.70;99.90;;;;;;5072084;28;20282;-67
2022/01/31 07:17:51;;;;;;;2.50;1.80;;;30.50;99.90;;;;;;5071908;28;20186;-66
2022/01/31 07:20:23;;;;;;;4.73;2.13;;;30.70;99.90;;;;;;5070252;28;20184;-68
2022/01/31 07:22:57;;;;;;;3.73;1.53;;;30.60;99.90;;;;;;5071599;28;20188;-66
2022/01/31 07:25:42;;;;;;;4.55;2.28;;;30.30;99.90;;;;;;5072211;28;20636;-64
2022/01/31 07:28:12;;;;;;;3.53;1.80;;;30.10;99.90;;;;;;5072860;28;20180;-68
2022/01/31 07:30:44;;;;;;;3.20;1.80;;;29.70;99.90;;;;;;5073491;28;20302;-67
2022/01/31 07:33:13;;;;;;;4.50;2.00;;;29.40;99.90;;;;;;5055436;28;20191;-65
2022/01/31 07:35:46;;;;;;;2.47;1.90;;;29.20;99.90;;;;;;5055653;28;20194;-67
2022/01/31 07:38:14;;;;;;;2.53;2.03;;;28.80;99.90;;;;;;5073145;28;20176;-66
2022/01/31 07:40:42;;;;;;;3.00;1.90;;;28.60;99.90;;;;;;5073396;28;20199;-64
2022/01/31 07:43:10;;;;;;;4.03;1.87;;;28.50;99.90;;;;;;5072575;28;20191;-66
2022/01/31 07:45:38;;;;;;;4.97;2.10;;;28.50;99.90;;;;;;5073075;28;20210;-66
2022/01/31 07:48:06;;;;;;;2.27;1.50;;;28.30;99.90;;;;;;5072300;28;20233;-65
2022/01/31 07:50:36;;;;;;;5.70;1.70;;;28.40;99.90;;;;;;5072434;28;20203;-66
2022/01/31 07:53:05;;;;;;;2.17;1.40;;;28.40;99.90;;;;;;5072909;28;20210;-66
2022/01/31 07:55:33;;;;;;;3.77;2.00;;;28.40;99.90;;;;;;5075295;28;20172;-65
2022/01/31 07:58:01;;;;;;;8.87;1.80;;;28.40;99.90;;;;;;5077356;28;20176;-67
2022/01/31 08:00:30;;;;;;;3.50;1.43;;;28.30;99.90;;;;;;5084938;28;20187;-68
2022/01/31 08:02:59;;;;;;;3.23;1.20;;;28.20;99.90;;;;;;5077843;28;20259;-67
2022/01/31 08:05:26;;;;;;;2.20;1.40;;;28.20;99.90;;;;;;5074118;28;20172;-67
2022/01/31 08:07:54;;;;;;;3.53;1.50;;;28.10;99.90;;;;;;5073850;28;20191;-65
2022/01/31 08:10:22;;;;;;;3.90;1.70;;;28.10;99.90;;;;;;5070899;28;20235;-66
2022/01/31 08:12:50;;;;;;;2.87;1.20;;;28.20;99.90;;;;;;5072205;28;20203;-67
2022/01/31 08:15:26;;;;;;;3.80;1.30;;;28.40;99.90;;;;;;5072543;28;20176;-66
2022/01/31 08:17:54;;;;;;;2.77;1.17;;;28.90;99.90;;;;;;5070804;28;20228;-66
2022/01/31 08:20:23;;;;;;;2.67;1.20;;;29.30;99.90;;;;;;5072349;28;20176;-67
2022/01/31 08:22:51;;;;;;;3.10;1.07;;;29.20;99.90;;;;;;5072101;28;20189;-65
2022/01/31 08:25:19;;;;;;;2.20;1.03;;;29.20;99.90;;;;;;5072386;28;20342;-69
2022/01/31 08:27:49;;;;;;;1.77;0.90;;;29.20;99.90;;;;;;5068630;28;20260;-66
2022/01/31 08:30:22;;;;;;;3.60;1.20;;;29.00;99.90;;;;;;5064783;28;20357;-66
2022/01/31 08:32:59;;;;;;;2.13;0.93;;;28.60;99.90;;;;;;5070534;28;20649;-67
2022/01/31 08:38:13;;;;;;;2.87;1.17;;;28.20;99.90;;;;;;5072242;28;20205;-66
2022/01/31 08:40:41;;;;;;;2.87;1.00;;;28.30;99.90;;;;;;5072052;28;20221;-66
2022/01/31 08:43:09;;;;;;;3.07;1.00;;;28.10;99.90;;;;;;5071602;28;20211;-64
2022/01/31 08:45:37;;;;;;;2.53;1.07;;;28.10;99.90;;;;;;5072141;28;20217;-67
2022/01/31 08:48:05;;;;;;;1.97;0.87;;;28.00;99.90;;;;;;5072318;28;20304;-66
2022/01/31 08:50:33;;;;;;;4.83;1.17;;;27.90;99.90;;;;;;5070724;28;20215;-68
2022/01/31 08:53:01;;;;;;;1.60;0.83;;;27.70;99.90;;;;;;5071704;28;20207;-65
2022/01/31 08:55:29;;;;;;;4.27;1.20;;;27.40;99.90;;;;;;5071928;28;20178;-69
2022/01/31 08:57:58;;;;;;;2.50;1.13;;;27.30;99.90;;;;;;5072059;28;20206;-67
2022/01/31 09:00:33;;;;;;;2.87;0.87;;;27.20;99.90;;;;;;5074948;28;20207;-67
2022/01/31 09:03:40;;;;;;;1.50;1.00;;;27.10;99.90;;;;;;5075636;28;20290;-67
2022/01/31 09:05:50;;;;;;;2.77;0.90;;;27.10;99.90;;;;;;5075531;28;20269;-68
2022/01/31 09:08:18;;;;;;;3.60;1.13;;;27.00;99.90;;;;;;5075524;28;20179;-66
2022/01/31 09:10:46;;;;;;;2.93;1.20;;;26.80;99.90;;;;;;5076462;28;20294;-67
2022/01/31 09:13:17;;;;;;;3.47;1.30;;;26.60;99.90;;;;;;5075162;28;20226;-65
2022/01/31 09:15:45;;;;;;;2.60;0.90;;;26.60;99.90;;;;;;5076690;28;20178;-67
2022/01/31 09:18:13;;;;;;;1.70;0.90;;;26.50;99.90;;;;;;5075459;28;20709;-68
2022/01/31 09:20:41;;;;;;;2.47;0.90;;;26.40;99.90;;;;;;5059300;28;20180;-68
2022/01/31 09:23:08;;;;;;;2.93;0.93;;;26.40;99.90;;;;;;5075047;28;20176;-67
2022/01/31 09:25:43;;;;;;;2.73;1.00;;;26.40;99.90;;;;;;5077091;28;20179;-66
2022/01/31 09:28:11;;;;;;;1.20;0.83;;;26.40;99.90;;;;;;5077088;28;20197;-67
2022/01/31 09:30:40;;;;;;;3.27;0.87;;;26.40;99.90;;;;;;5075446;28;20212;-68
2022/01/31 09:33:09;;;;;;;3.27;1.10;;;26.40;99.90;;;;;;5074812;28;20191;-67
2022/01/31 09:35:42;;;;;;;1.87;0.87;;;26.20;99.90;;;;;;5076052;28;20175;-66
2022/01/31 09:38:12;;;;;;;3.37;1.30;;;26.10;99.90;;;;;;5074999;28;20210;-67
2022/01/31 09:40:41;;;;;;;2.90;1.20;;;26.10;99.90;;;;;;5076583;28;20548;-67
2022/01/31 09:45:57;;;;;;;3.10;1.00;;;25.90;99.90;;;;;;5077201;28;20172;-66
2022/01/31 09:48:37;;;;;;;3.90;1.00;;;25.90;99.90;;;;;;5075135;28;20175;-66
2022/01/31 09:51:16;;;;;;;3.07;0.97;;;25.80;99.90;;;;;;5075502;28;20242;-67
2022/01/31 09:53:43;;;;;;;2.80;1.00;;;25.70;99.90;;;;;;5076387;28;20179;-68
2022/01/31 09:56:18;;;;;;;5.73;1.10;;;25.70;99.90;;;;;;5076877;28;20667;-67
2022/01/31 09:58:46;;;;;;;2.73;1.20;;;25.70;99.90;;;;;;5076007;28;20186;-66
2022/01/31 10:01:19;;;;;;;2.23;1.00;;;25.70;99.90;;;;;;5076177;28;20183;-65
2022/01/31 10:03:58;;;;;;;3.50;1.20;;;25.60;99.90;;;;;;5075032;28;20222;-66
2022/01/31 10:06:37;;;;;;;4.90;1.40;;;25.60;99.90;;;;;;5075136;28;20180;-66
2022/01/31 10:09:17;;;;;;;2.00;1.03;;;25.50;99.90;;;;;;5074660;28;20254;-65
2022/01/31 10:12:07;;;;;;;2.53;1.00;;;25.50;99.90;;;;;;5073890;28;20208;-66
2022/01/31 10:17:44;;;;;;;2.03;1.10;;;25.40;99.90;;;;;;5075660;28;20194;-66
2022/01/31 10:20:29;;;;;;;3.97;1.30;;;25.50;99.90;;;;;;5075031;28;20543;-65
2022/01/31 10:23:06;;;;;;;3.83;1.50;;;25.40;99.90;;;;;;5075296;28;20182;-67
2022/01/31 10:25:34;;;;;;;2.83;0.93;;;25.40;99.90;;;;;;5076110;28;20268;-67
2022/01/31 10:28:09;;;;;;;4.50;1.20;;;25.50;99.90;;;;;;5075455;28;20221;-66
2022/01/31 10:30:37;;;;;;;3.07;1.30;;;25.50;99.90;;;;;;5076003;28;20199;-65
2022/01/31 10:33:09;;;;;;;2.83;1.03;;;25.60;99.90;;;;;;5076259;28;20230;-66
2022/01/31 10:35:41;;;;;;;2.40;1.03;;;25.60;99.90;;;;;;5077180;28;20180;-67
2022/01/31 10:38:16;;;;;;;2.87;1.30;;;25.70;99.90;;;;;;5076693;28;20187;-66
2022/01/31 10:52:06;;;;;;;1.83;0.80;;;25.90;99.90;;;;;;5074873;28;20254;-67
2022/01/31 10:57:22;;;;;;;1.80;0.70;;;26.00;99.90;;;;;;5074529;28;20188;-65
2022/01/31 10:59:56;;;;;;;3.93;0.83;;;26.00;99.90;;;;;;5074498;28;20215;-64
2022/01/31 11:02:27;;;;;;;2.13;0.90;;;25.80;99.90;;;;;;5074739;28;20179;-66
2022/01/31 11:04:55;;;;;;;3.80;1.00;;;25.70;99.90;;;;;;5073091;28;20581;-66
2022/01/31 11:07:26;;;;;;;3.53;1.00;;;25.70;99.90;;;;;;5073967;28;20241;-64
2022/01/31 11:09:55;;;;;;;1.90;1.00;;;25.70;99.90;;;;;;5071335;28;20235;-64
2022/01/31 11:12:23;;;;;;;2.93;1.23;;;25.60;99.90;;;;;;5072610;28;20212;-65
2022/01/31 11:14:53;;;;;;;1.97;0.90;;;25.50;99.90;;;;;;5074270;28;20596;-64
2022/01/31 11:17:24;;;;;;;3.03;1.03;;;25.50;99.90;;;;;;5054514;28;20210;-67
2022/01/31 11:19:57;;;;;;;3.70;1.23;;;25.40;99.90;;;;;;5053139;28;20566;-66
2022/01/31 11:22:37;;;;;;;2.00;0.80;;;25.40;99.90;;;;;;5062982;28;20199;-66
2022/01/31 11:25:08;;;;;;;1.70;0.80;;;25.40;99.90;;;;;;5073859;28;20180;-65
2022/01/31 11:27:39;;;;;;;1.93;1.00;;;25.30;99.90;;;;;;5074162;28;20199;-66
2022/01/31 11:30:08;;;;;;;1.57;1.40;;;25.20;99.90;;;;;;5071428;28;20176;-66
2022/01/31 11:32:38;;;;;;;2.13;1.00;;;25.20;99.90;;;;;;5073715;28;20176;-65
2022/01/31 11:35:07;;;;;;;2.83;1.00;;;25.20;99.90;;;;;;5073283;28;20679;-67
2022/01/31 11:37:36;;;;;;;1.60;1.00;;;25.10;99.90;;;;;;5073910;28;20644;-67
2022/01/31 11:40:09;;;;;;;4.80;1.30;;;25.10;99.90;;;;;;5073945;28;20199;-65
2022/01/31 11:42:41;;;;;;;2.83;0.73;;;25.00;99.90;;;;;;5074247;28;20658;-68
2022/01/31 11:45:14;;;;;;;4.73;1.57;;;25.10;99.90;;;;;;5073544;28;20192;-66
2022/01/31 11:47:45;;;;;;;3.77;0.90;;;25.00;99.90;;;;;;5073762;28;20197;-67
2022/01/31 11:50:13;;;;;;;2.47;1.03;;;25.00;99.90;;;;;;5053750;28;20177;-66
2022/01/31 11:52:49;;;;;;;3.83;1.27;;;25.00;99.90;;;;;;5053801;28;20208;-67
2022/01/31 11:55:31;;;;;;;1.70;0.83;;;25.00;99.90;;;;;;5057236;28;20180;-67
2022/01/31 11:57:59;;;;;;;3.97;1.00;;;25.00;99.90;;;;;;5072645;28;20172;-67
2022/01/31 12:00:28;;;;;;;4.33;0.93;;;25.00;99.90;;;;;;5073567;28;20176;-67
2022/01/31 12:03:08;;;;;;;4.73;1.00;;;24.90;99.90;;;;;;5073111;28;20202;-66
2022/01/31 12:05:37;;;;;;;4.73;0.93;;;24.90;99.90;;;;;;5073437;28;20180;-67
2022/01/31 12:08:08;;;;;;;3.33;0.80;;;25.00;99.90;;;;;;5073544;28;20179;-64
2022/01/31 12:10:44;;;;;;;2.37;1.00;;;25.00;99.90;;;;;;5073416;28;20306;-67
2022/01/31 12:13:50;;;;;;;4.10;1.03;;;25.00;99.90;;;;;;5073129;28;20175;-64
2022/01/31 12:16:48;;;;;;;3.03;0.80;;;25.00;99.90;;;;;;5030766;28;20191;-67
2022/01/31 12:19:45;;;;;;;3.20;1.30;;;25.00;99.90;;;;;;5053741;28;20184;-66
2022/01/31 12:22:40;;;;;;;4.27;1.40;;;25.00;99.90;;;;;;5058166;28;20188;-65
2022/01/31 12:25:31;;;;;;;4.07;1.63;;;25.00;99.90;;;;;;5057011;28;20203;-64
2022/01/31 12:28:19;;;;;;;3.57;1.23;;;25.00;99.90;;;;;;5070796;28;20266;-67
2022/01/31 12:30:46;;;;;;;2.77;1.37;;;25.00;99.90;;;;;;5052013;28;20210;-65
2022/01/31 12:33:42;;;;;;;5.73;1.50;;;24.90;99.90;;;;;;5053171;28;20254;-67
2022/01/31 12:36:10;;;;;;;3.43;1.30;;;24.90;99.90;;;;;;5064473;28;20215;-67
2022/01/31 12:38:38;;;;;;;1.83;1.03;;;24.80;99.90;;;;;;5073254;28;20300;-67
2022/01/31 12:41:30;;;;;;;1.93;1.10;;;24.80;99.90;;;;;;5073251;28;20660;-67
2022/01/31 12:44:38;;;;;;;2.83;1.37;;;24.80;99.90;;;;;;5073315;28;20168;-65
2022/01/31 12:47:14;;;;;;;3.70;1.50;;;24.70;99.90;;;;;;5073153;28;20187;-66
2022/01/31 12:49:43;;;;;;;5.13;1.87;;;24.70;99.90;;;;;;5071568;28;20184;-66
2022/01/31 12:52:11;;;;;;;2.13;1.37;;;24.60;99.90;;;;;;5073788;28;20239;-67
2022/01/31 12:54:42;;;;;;;10.93;1.90;;;24.60;99.90;;;;;;5072768;28;20176;-65
2022/01/31 12:57:12;;;;;;;6.20;2.17;;;24.60;99.90;;;;;;5053052;28;20200;-65
2022/01/31 12:59:41;;;;;;;4.60;2.00;;;24.50;99.90;;;;;;5067077;28;20186;-67
2022/01/31 13:02:10;;;;;;;3.07;1.67;;;24.50;99.90;;;;;;5073236;28;20194;-66
2022/01/31 13:04:39;;;;;;;5.10;1.73;;;24.50;99.90;;;;;;5072814;28;20172;-66
2022/01/31 13:07:10;;;;;;;6.00;1.10;;;24.40;99.90;;;;;;5072921;28;20190;-67
2022/01/31 13:09:39;;;;;;;5.67;1.10;;;24.40;99.90;;;;;;5072470;28;20223;-67
2022/01/31 13:12:17;;;;;;;2.00;1.20;;;24.40;99.90;;;;;;5072889;28;20215;-67
2022/01/31 13:14:50;;;;;;;3.00;1.20;;;24.40;99.90;;;;;;5072533;28;20172;-65
2022/01/31 13:17:25;;;;;;;2.30;1.20;;;24.40;99.90;;;;;;5072848;28;20262;-66
2022/01/31 13:19:56;;;;;;;3.60;1.13;;;24.30;99.90;;;;;;5072825;28;20183;-67
2022/01/31 13:22:40;;;;;;;3.23;0.93;;;24.30;99.90;;;;;;5073280;28;20187;-66
2022/01/31 13:25:16;;;;;;;3.30;1.00;;;24.30;99.90;;;;;;5072618;28;20554;-68
2022/01/31 13:27:47;;;;;;;3.73;1.30;;;24.20;99.90;;;;;;5072971;28;20214;-66